Time;durP1;ratioP1;P1;durP2;ratioP2;P2;SDS_P1;SDS_P2;PMS_P1;PMS_P2;Temp;Humidity;BMP_temperature;BMP_pressure;BME280_temperature;BME280_humidity;BME280_pressure;Samples;Min_cycle;Max_cycle;Signal;HPM_P1;HPM_P2
2022/09/06 00:01:09;;;;;;;6.00;1.00;;;11.90;99.90;;;;;;5052794;28;20025;-77
2022/09/06 00:03:37;;;;;;;5.90;1.17;;;12.00;99.90;;;;;;5052823;28;20029;-78
2022/09/06 00:06:12;;;;;;;2.67;0.73;;;12.20;99.90;;;;;;5052549;28;20037;-76
2022/09/06 00:08:40;;;;;;;;;;;12.30;99.90;;;;;;5053414;28;20017;-77
2022/09/06 00:11:08;;;;;;;2.97;1.25;;;12.40;99.90;;;;;;5052991;28;19911;-77
2022/09/06 00:13:36;;;;;;;3.83;0.70;;;12.50;99.90;;;;;;5052410;28;20029;-77
2022/09/06 00:16:21;;;;;;;9.57;1.35;;;12.60;99.90;;;;;;5052562;28;20032;-77
2022/09/06 00:18:52;;;;;;;6.60;1.55;;;12.70;99.90;;;;;;5052470;28;20049;-77
2022/09/06 00:21:23;;;;;;;5.63;1.55;;;12.80;99.90;;;;;;5053242;28;20021;-77
2022/09/06 00:23:51;;;;;;;2.78;0.93;;;12.90;99.90;;;;;;5054417;28;20075;-78
2022/09/06 00:26:20;;;;;;;9.10;1.10;;;13.00;99.90;;;;;;5056307;28;20037;-77
2022/09/06 00:28:48;;;;;;;6.63;0.80;;;13.10;99.90;;;;;;5056440;28;20487;-77
2022/09/06 00:31:21;;;;;;;4.82;1.23;;;13.20;99.90;;;;;;5056435;28;20021;-76
2022/09/06 00:33:48;;;;;;;8.45;1.33;;;13.20;99.90;;;;;;5056234;28;20166;-77
2022/09/06 00:36:16;;;;;;;7.18;0.88;;;13.20;99.90;;;;;;5056117;28;20092;-77
2022/09/06 00:38:44;;;;;;;1.55;0.63;;;13.20;99.90;;;;;;5056497;28;20028;-77
2022/09/06 00:41:13;;;;;;;5.78;1.25;;;13.20;99.90;;;;;;5056164;28;20068;-77
2022/09/06 00:43:41;;;;;;;4.97;1.15;;;13.10;99.90;;;;;;5056302;28;20051;-77
2022/09/06 00:46:13;;;;;;;9.77;1.98;;;13.10;99.90;;;;;;5055995;28;20044;-76
2022/09/06 00:48:42;;;;;;;3.47;1.10;;;13.10;99.90;;;;;;5055966;28;20017;-76
2022/09/06 00:51:12;;;;;;;8.60;1.98;;;13.10;99.90;;;;;;5055991;28;20040;-77
2022/09/06 00:53:40;;;;;;;4.45;1.00;;;13.10;99.90;;;;;;5055818;28;20025;-75
2022/09/06 00:56:08;;;;;;;4.65;1.02;;;13.30;99.90;;;;;;5055769;28;20029;-77
2022/09/06 00:58:36;;;;;;;5.40;1.27;;;13.40;99.90;;;;;;5055963;28;20355;-76
2022/09/06 01:01:04;;;;;;;18.52;2.20;;;13.50;99.90;;;;;;5055765;28;20043;-76
2022/09/06 01:03:31;;;;;;;5.20;1.48;;;13.60;99.90;;;;;;5055707;28;20017;-76
2022/09/06 01:06:17;;;;;;;5.70;1.17;;;13.80;99.90;;;;;;5055561;28;20037;-76
2022/09/06 01:08:44;;;;;;;2.30;0.98;;;13.90;99.90;;;;;;5055864;28;20017;-77
2022/09/06 01:11:23;;;;;;;2.90;1.08;;;13.90;99.90;;;;;;5055603;28;20025;-77
2022/09/06 01:14:22;;;;;;;5.05;1.20;;;14.00;99.90;;;;;;5055615;28;20022;-77
2022/09/06 01:17:27;;;;;;;5.78;1.00;;;13.80;99.90;;;;;;5055665;28;20025;-77
2022/09/06 01:20:08;;;;;;;4.47;0.95;;;13.50;99.90;;;;;;5020224;28;20164;-76
2022/09/06 01:23:07;;;;;;;4.43;0.85;;;13.30;99.90;;;;;;5055347;28;20021;-76
2022/09/06 01:25:47;;;;;;;3.05;0.70;;;13.20;99.90;;;;;;5054276;28;20436;-77
2022/09/06 01:28:30;;;;;;;2.72;1.05;;;13.10;99.90;;;;;;5055136;28;20032;-75
2022/09/06 01:31:27;;;;;;;3.60;1.35;;;13.00;99.90;;;;;;5055130;28;20032;-77
2022/09/06 01:34:06;;;;;;;5.78;1.17;;;12.80;99.90;;;;;;5055023;28;20041;-76
2022/09/06 01:36:57;;;;;;;6.50;1.10;;;12.80;99.90;;;;;;5054250;28;20032;-76
2022/09/06 01:39:29;;;;;;;4.63;1.25;;;12.70;99.90;;;;;;5055011;28;20022;-76
2022/09/06 01:42:00;;;;;;;1.50;0.70;;;12.60;99.90;;;;;;5055156;28;20040;-76
2022/09/06 01:44:29;;;;;;;5.70;0.75;;;12.50;99.90;;;;;;5054861;28;20028;-77
2022/09/06 01:47:22;;;;;;;4.72;0.65;;;12.40;99.90;;;;;;5054732;28;20029;-75
2022/09/06 01:50:04;;;;;;;3.28;1.10;;;12.30;99.90;;;;;;5051273;28;20040;-77
2022/09/06 01:53:02;;;;;;;2.50;0.63;;;12.30;99.90;;;;;;5054627;28;20037;-77
2022/09/06 01:55:41;;;;;;;1.50;0.40;;;12.20;99.90;;;;;;5054803;28;20033;-77
2022/09/06 01:58:29;;;;;;;4.03;0.45;;;12.20;99.90;;;;;;5054778;28;20021;-77
2022/09/06 02:01:26;;;;;;;1.33;0.45;;;12.20;99.90;;;;;;5055288;28;20470;-77
2022/09/06 02:04:16;;;;;;;1.95;0.45;;;12.30;99.90;;;;;;5054670;28;20040;-76
2022/09/06 02:06:53;;;;;;;3.65;1.17;;;12.30;99.90;;;;;;5054351;28;20032;-77
2022/09/06 02:09:28;;;;;;;6.38;0.75;;;12.30;99.90;;;;;;5054742;28;20118;-76
2022/09/06 02:11:59;;;;;;;4.78;1.27;;;12.40;99.90;;;;;;5054225;28;20025;-76
2022/09/06 02:14:34;;;;;;;2.65;0.57;;;12.40;99.90;;;;;;5054298;28;20025;-77
2022/09/06 02:17:04;;;;;;;2.70;0.45;;;12.40;99.90;;;;;;5054326;28;20036;-76
2022/09/06 02:19:35;;;;;;;2.95;0.70;;;12.50;99.90;;;;;;5054272;28;20025;-76
2022/09/06 02:22:07;;;;;;;4.75;0.95;;;12.50;99.90;;;;;;5054619;28;20017;-77
2022/09/06 02:24:38;;;;;;;3.45;0.82;;;12.60;99.90;;;;;;5054293;28;20021;-77
2022/09/06 02:27:05;;;;;;;2.72;0.77;;;12.60;99.90;;;;;;5054042;28;20396;-76
2022/09/06 02:29:34;;;;;;;3.72;0.70;;;12.70;99.90;;;;;;5054192;28;20049;-76
2022/09/06 02:32:05;;;;;;;4.28;1.15;;;12.80;99.90;;;;;;5053995;28;20021;-77
2022/09/06 02:34:36;;;;;;;2.55;0.70;;;12.80;99.90;;;;;;5053932;28;20045;-76
2022/09/06 02:37:03;;;;;;;2.65;0.93;;;12.90;99.90;;;;;;5053724;28;20494;-77
2022/09/06 02:39:30;;;;;;;2.05;0.73;;;13.00;99.90;;;;;;5054100;28;20033;-76
2022/09/06 02:41:58;;;;;;;4.22;0.85;;;13.00;99.90;;;;;;5054449;28;20350;-76
2022/09/06 02:44:26;;;;;;;4.30;0.70;;;13.00;99.90;;;;;;5053678;28;20057;-76
2022/09/06 02:46:53;;;;;;;5.82;1.00;;;13.10;99.90;;;;;;5052798;28;20049;-76
2022/09/06 02:49:20;;;;;;;2.97;1.10;;;13.20;99.90;;;;;;5054013;28;20443;-76
2022/09/06 02:51:47;;;;;;;7.20;1.23;;;13.30;99.90;;;;;;5053750;28;20031;-77
2022/09/06 02:54:15;;;;;;;2.33;1.00;;;13.40;99.90;;;;;;5053543;28;20517;-77
2022/09/06 02:56:42;;;;;;;1.92;0.90;;;13.50;99.90;;;;;;5053552;28;20025;-77
2022/09/06 02:59:09;;;;;;;3.97;1.00;;;13.60;99.90;;;;;;5053710;28;20056;-77
2022/09/06 03:01:37;;;;;;;6.07;1.05;;;13.60;99.90;;;;;;5053457;28;20048;-77
2022/09/06 03:04:04;;;;;;;6.05;1.10;;;13.70;99.90;;;;;;5053646;28;20028;-77
2022/09/06 03:06:32;;;;;;;8.73;0.90;;;13.70;99.90;;;;;;5053413;28;20090;-76
2022/09/06 03:08:59;;;;;;;1.83;0.70;;;13.80;99.90;;;;;;5053480;28;20029;-76
2022/09/06 03:11:27;;;;;;;3.35;0.50;;;13.90;99.90;;;;;;5053487;28;20086;-77
2022/09/06 03:13:55;;;;;;;2.28;1.00;;;13.90;99.90;;;;;;5053229;28;20017;-77
2022/09/06 03:16:22;;;;;;;2.90;0.95;;;14.00;99.90;;;;;;5053362;28;20484;-76
2022/09/06 03:18:49;;;;;;;2.28;0.55;;;14.10;99.90;;;;;;5053537;28;20114;-76
2022/09/06 03:21:17;;;;;;;2.25;0.47;;;14.20;99.90;;;;;;5035591;28;20025;-75
2022/09/06 03:23:44;;;;;;;2.35;0.60;;;14.20;99.90;;;;;;5053120;28;20382;-77
2022/09/06 03:26:12;;;;;;;2.33;0.60;;;14.20;99.90;;;;;;5053155;28;20485;-77
2022/09/06 03:28:39;;;;;;;6.43;1.02;;;14.10;99.90;;;;;;5053120;28;20390;-76
2022/09/06 03:31:06;;;;;;;3.50;1.00;;;14.10;99.90;;;;;;5053611;28;20021;-76
2022/09/06 03:33:34;;;;;;;2.45;0.70;;;14.10;99.90;;;;;;5052672;28;20077;-77
2022/09/06 03:36:02;;;;;;;2.20;0.75;;;14.00;99.90;;;;;;5053411;28;20547;-76
2022/09/06 03:38:30;;;;;;;2.33;0.70;;;14.00;99.90;;;;;;5053187;28;20112;-77
2022/09/06 03:40:58;;;;;;;1.95;0.57;;;14.00;99.90;;;;;;5053285;28;20486;-76
2022/09/06 03:43:26;;;;;;;4.05;0.63;;;13.90;99.90;;;;;;5053017;28;20029;-77
2022/09/06 03:45:58;;;;;;;3.08;0.63;;;13.90;99.90;;;;;;5052718;28;20037;-76
2022/09/06 03:48:29;;;;;;;1.58;0.43;;;13.90;99.90;;;;;;5052826;28;20087;-76
2022/09/06 03:50:58;;;;;;;1.20;0.70;;;13.90;99.90;;;;;;5053177;28;20108;-77
2022/09/06 03:53:27;;;;;;;1.92;0.50;;;13.90;99.90;;;;;;5052886;28;20108;-77
2022/09/06 03:55:57;;;;;;;1.58;0.63;;;13.80;99.90;;;;;;5053031;28;20025;-77
2022/09/06 03:58:28;;;;;;;1.90;0.57;;;13.80;99.90;;;;;;5054076;28;20025;-77
2022/09/06 04:01:10;;;;;;;1.67;0.45;;;13.90;99.90;;;;;;5057219;28;20098;-77
2022/09/06 04:03:38;;;;;;;3.13;0.88;;;13.90;99.90;;;;;;5057038;28;20017;-77
2022/09/06 04:06:07;;;;;;;1.45;0.68;;;13.90;99.90;;;;;;5056848;28;20037;-77
2022/09/06 04:08:35;;;;;;;4.88;1.35;;;14.00;99.90;;;;;;5056906;28;20052;-76
2022/09/06 04:11:03;;;;;;;2.03;0.82;;;14.00;99.90;;;;;;5056562;28;20029;-76
2022/09/06 04:13:31;;;;;;;4.22;0.93;;;13.90;99.90;;;;;;5038594;28;20029;-76
2022/09/06 04:16:00;;;;;;;2.63;0.57;;;13.90;99.90;;;;;;5038697;28;20052;-77
2022/09/06 04:18:27;;;;;;;3.58;0.95;;;13.80;99.90;;;;;;5056760;28;20039;-77
2022/09/06 04:20:57;;;;;;;1.92;0.70;;;13.80;99.90;;;;;;5056345;28;20409;-76
2022/09/06 04:23:27;;;;;;;1.83;0.90;;;13.80;99.90;;;;;;5056182;28;20466;-76
2022/09/06 04:25:56;;;;;;;4.75;0.98;;;13.70;99.90;;;;;;5056161;28;20044;-76
2022/09/06 04:28:25;;;;;;;2.85;0.77;;;13.70;99.90;;;;;;5056370;28;20017;-77
2022/09/06 04:30:55;;;;;;;2.22;0.60;;;13.70;99.90;;;;;;5056346;28;20017;-77
2022/09/06 04:33:26;;;;;;;5.63;0.80;;;13.70;99.90;;;;;;5056030;28;20028;-76
2022/09/06 04:35:56;;;;;;;4.97;1.02;;;13.70;99.90;;;;;;5056203;28;20044;-76
2022/09/06 04:38:25;;;;;;;6.47;0.80;;;13.60;99.90;;;;;;5056010;28;20108;-77
2022/09/06 04:40:56;;;;;;;4.18;0.75;;;13.60;99.90;;;;;;5056252;28;20055;-76
2022/09/06 04:43:24;;;;;;;1.65;0.77;;;13.50;99.90;;;;;;5056238;28;20470;-77
2022/09/06 04:45:52;;;;;;;1.58;0.50;;;13.50;99.90;;;;;;5056066;28;20039;-77
2022/09/06 04:48:20;;;;;;;1.38;0.40;;;13.50;99.90;;;;;;5056053;28;20029;-77
2022/09/06 04:50:47;;;;;;;5.43;0.70;;;13.50;99.90;;;;;;5056031;28;20107;-76
2022/09/06 04:53:15;;;;;;;4.25;0.98;;;13.50;99.90;;;;;;5055799;28;20021;-76
2022/09/06 04:55:43;;;;;;;3.20;0.85;;;13.50;99.90;;;;;;5055681;28;20047;-76
2022/09/06 04:58:10;;;;;;;2.75;0.52;;;13.50;99.90;;;;;;5055697;28;20025;-76
2022/09/06 05:00:41;;;;;;;4.85;1.10;;;13.50;99.90;;;;;;5055631;28;20039;-77
2022/09/06 05:03:08;;;;;;;4.50;0.77;;;13.50;99.90;;;;;;5056013;28;20107;-77
2022/09/06 05:05:36;;;;;;;2.47;0.98;;;13.60;99.90;;;;;;5055661;28;20029;-76
2022/09/06 05:08:04;;;;;;;2.65;0.73;;;13.60;99.90;;;;;;5055817;28;20101;-76
2022/09/06 05:10:32;;;;;;;2.30;0.50;;;13.60;99.90;;;;;;5036533;28;20484;-76
2022/09/06 05:13:00;;;;;;;2.92;0.73;;;13.60;99.90;;;;;;5055697;28;20037;-77
2022/09/06 05:15:27;;;;;;;0.75;0.50;;;13.50;99.90;;;;;;5055273;28;20021;-76
2022/09/06 05:18:02;;;;;;;6.30;1.10;;;13.50;99.90;;;;;;5055311;28;20048;-77
2022/09/06 05:20:31;;;;;;;2.42;0.70;;;13.50;99.90;;;;;;5055380;28;20060;-75
2022/09/06 05:22:59;;;;;;;3.70;0.95;;;13.50;99.90;;;;;;5055417;28;20382;-76
2022/09/06 05:25:26;;;;;;;1.13;0.50;;;13.40;99.90;;;;;;5055397;28;20040;-76
2022/09/06 05:27:54;;;;;;;2.70;0.60;;;13.40;99.90;;;;;;5055231;28;20086;-77
2022/09/06 05:30:22;;;;;;;2.45;1.00;;;13.30;99.90;;;;;;5055166;28;20355;-77
2022/09/06 05:32:51;;;;;;;4.97;0.50;;;13.20;99.90;;;;;;5055153;28;20025;-76
2022/09/06 05:35:18;;;;;;;5.55;1.25;;;13.20;99.90;;;;;;5055023;28;20120;-77
2022/09/06 05:37:46;;;;;;;1.40;0.40;;;13.20;99.90;;;;;;5055021;28;20104;-76
2022/09/06 05:40:14;;;;;;;4.95;0.70;;;13.10;99.90;;;;;;5055169;28;20028;-76
2022/09/06 05:42:41;;;;;;;1.73;0.60;;;13.10;99.90;;;;;;5054965;28;20017;-76
2022/09/06 05:45:09;;;;;;;5.50;0.45;;;13.00;99.90;;;;;;5054702;28;20107;-77
2022/09/06 05:47:37;;;;;;;1.52;1.17;;;13.00;99.90;;;;;;5054934;28;20649;-77
2022/09/06 05:50:05;;;;;;;2.25;0.40;;;13.00;99.90;;;;;;5054931;28;20104;-75
2022/09/06 05:52:34;;;;;;;1.33;0.30;;;12.90;99.90;;;;;;5054816;28;20043;-76
2022/09/06 05:55:03;;;;;;;8.65;0.65;;;12.90;99.90;;;;;;5054889;28;20032;-76
2022/09/06 05:57:30;;;;;;;2.63;0.80;;;12.90;99.90;;;;;;5054592;28;20108;-77
2022/09/06 05:59:58;;;;;;;5.25;0.63;;;12.90;99.90;;;;;;5054977;28;20036;-76
2022/09/06 06:02:29;;;;;;;4.60;0.77;;;12.90;99.90;;;;;;5054773;28;20025;-77
2022/09/06 06:04:57;;;;;;;2.83;0.50;;;12.90;99.90;;;;;;5054711;28;20067;-77
2022/09/06 06:07:25;;;;;;;7.47;0.63;;;12.80;99.90;;;;;;5054243;28;20397;-77
2022/09/06 06:09:52;;;;;;;1.25;0.70;;;12.80;99.90;;;;;;5054589;28;20048;-77
2022/09/06 06:12:20;;;;;;;2.50;0.60;;;12.80;99.90;;;;;;5054590;28;20033;-77
2022/09/06 06:14:48;;;;;;;4.95;1.00;;;12.80;99.90;;;;;;5054345;28;20064;-77
2022/09/06 06:17:15;;;;;;;2.17;1.00;;;12.80;99.90;;;;;;5054488;28;20078;-76
2022/09/06 06:19:43;;;;;;;2.85;1.17;;;12.80;99.90;;;;;;5055029;28;20477;-77
2022/09/06 06:22:11;;;;;;;10.43;4.38;;;12.90;99.90;;;;;;5036330;28;20047;-76
2022/09/06 06:24:38;;;;;;;3.80;1.90;;;12.90;99.90;;;;;;5054065;28;20080;-77
2022/09/06 06:27:06;;;;;;;1.52;0.70;;;12.90;99.90;;;;;;5053973;28;20107;-77
2022/09/06 06:29:34;;;;;;;1.77;0.82;;;12.90;99.90;;;;;;5054031;28;20492;-77
2022/09/06 06:32:02;;;;;;;3.05;1.10;;;12.90;99.90;;;;;;5054226;28;20025;-77
2022/09/06 06:34:29;;;;;;;0.45;0.40;;;12.90;99.90;;;;;;5053484;28;20057;-77
2022/09/06 06:36:58;;;;;;;1.92;0.60;;;12.80;99.90;;;;;;5053739;28;20488;-75
2022/09/06 06:39:29;;;;;;;0.77;0.40;;;12.90;99.90;;;;;;5054040;28;20025;-76
2022/09/06 06:41:57;;;;;;;1.48;0.40;;;12.90;99.90;;;;;;5054026;28;20074;-77
2022/09/06 06:44:26;;;;;;;1.95;0.50;;;12.90;99.90;;;;;;5053930;28;20045;-76
2022/09/06 06:46:56;;;;;;;2.67;0.95;;;12.90;99.90;;;;;;5053686;28;20029;-76
2022/09/06 06:49:25;;;;;;;2.35;0.55;;;12.90;99.90;;;;;;5053741;28;20025;-76
2022/09/06 06:51:52;;;;;;;1.48;0.50;;;12.90;99.90;;;;;;5053652;28;20113;-76
2022/09/06 06:54:20;;;;;;;0.90;0.60;;;12.90;99.90;;;;;;5053665;28;20024;-76
2022/09/06 06:56:48;;;;;;;1.15;1.02;;;12.90;99.90;;;;;;5053589;28;20537;-76
2022/09/06 06:59:15;;;;;;;2.45;0.85;;;12.90;99.90;;;;;;5053832;28;20016;-76
2022/09/06 07:01:43;;;;;;;2.90;0.77;;;12.90;99.90;;;;;;5053740;28;20029;-76
2022/09/06 07:04:13;;;;;;;4.65;2.25;;;12.90;99.90;;;;;;5053553;28;20017;-76
2022/09/06 07:06:53;;;;;;;2.28;1.10;;;12.90;99.90;;;;;;5053043;28;20041;-76
2022/09/06 07:09:21;;;;;;;3.38;1.65;;;12.80;99.90;;;;;;5053545;28;20021;-76
2022/09/06 07:11:49;;;;;;;2.97;1.33;;;12.80;99.90;;;;;;5053456;28;20108;-77
2022/09/06 07:14:18;;;;;;;7.68;4.63;;;12.80;99.90;;;;;;5053246;28;20377;-77
2022/09/06 07:16:46;;;;;;;3.38;1.90;;;12.80;99.90;;;;;;5053293;28;20070;-76
2022/09/06 07:19:14;;;;;;;4.03;0.77;;;12.80;99.90;;;;;;5053275;28;20438;-77
2022/09/06 07:21:42;;;;;;;6.65;4.25;;;12.70;99.90;;;;;;5053457;28;20017;-77
2022/09/06 07:24:09;;;;;;;2.72;1.67;;;12.70;99.90;;;;;;5053270;28;20371;-77
2022/09/06 07:26:38;;;;;;;1.33;0.80;;;12.70;99.90;;;;;;5053324;28;20025;-77
2022/09/06 07:29:08;;;;;;;1.02;0.50;;;12.60;99.90;;;;;;5053352;28;20414;-78
2022/09/06 07:31:38;;;;;;;1.45;0.57;;;12.60;99.90;;;;;;5053346;28;20025;-77
2022/09/06 07:34:06;;;;;;;1.23;0.50;;;12.60;99.90;;;;;;5057869;28;20525;-76
2022/09/06 07:36:34;;;;;;;1.05;0.50;;;12.60;99.90;;;;;;5059576;28;20036;-77
2022/09/06 07:39:02;;;;;;;8.80;4.63;;;12.60;99.90;;;;;;5059638;28;20087;-76
2022/09/06 07:41:29;;;;;;;5.10;1.10;;;12.50;99.90;;;;;;5059792;28;20025;-77
2022/09/06 07:43:57;;;;;;;3.42;0.70;;;12.50;99.90;;;;;;5058082;28;20040;-77
2022/09/06 07:46:25;;;;;;;6.05;2.65;;;12.50;99.90;;;;;;5041781;28;20098;-77
2022/09/06 07:48:52;;;;;;;1.20;1.00;;;12.50;99.90;;;;;;5059832;28;20057;-77
2022/09/06 07:51:21;;;;;;;6.05;1.20;;;12.50;99.90;;;;;;5059701;28;20044;-77
2022/09/06 07:53:52;;;;;;;1.35;0.73;;;12.40;99.90;;;;;;5059673;28;20021;-77
2022/09/06 07:56:21;;;;;;;3.15;0.98;;;12.40;99.90;;;;;;5059390;28;20029;-77
2022/09/06 07:58:50;;;;;;;2.33;0.70;;;12.40;99.90;;;;;;5059810;28;20021;-77
2022/09/06 08:01:34;;;;;;;2.58;0.60;;;12.40;99.90;;;;;;5059760;28;20104;-77
2022/09/06 08:04:04;;;;;;;2.22;0.40;;;12.40;99.90;;;;;;5059790;28;20074;-78
2022/09/06 08:06:35;;;;;;;1.58;0.55;;;12.30;99.90;;;;;;5059894;28;20040;-77
2022/09/06 08:09:06;;;;;;;5.22;0.50;;;12.30;99.90;;;;;;5059684;28;20070;-77
2022/09/06 08:11:35;;;;;;;4.53;1.13;;;12.30;99.90;;;;;;5059447;28;20053;-77
2022/09/06 08:14:06;;;;;;;3.40;1.75;;;12.30;99.90;;;;;;5059541;28;20111;-76
2022/09/06 08:16:35;;;;;;;3.42;2.35;;;12.40;99.90;;;;;;5059252;28;20025;-77
2022/09/06 08:19:09;;;;;;;2.80;1.08;;;12.40;99.90;;;;;;5059365;28;20028;-77
2022/09/06 08:21:37;;;;;;;3.97;1.13;;;12.40;99.90;;;;;;5059875;28;20048;-77
2022/09/06 08:24:08;;;;;;;2.33;1.17;;;12.40;99.90;;;;;;5059494;28;20518;-77
2022/09/06 08:26:46;;;;;;;2.40;1.25;;;12.30;99.90;;;;;;5059354;28;20029;-76
2022/09/06 08:29:14;;;;;;;2.35;1.40;;;12.30;99.90;;;;;;5059492;28;20017;-76
2022/09/06 08:31:43;;;;;;;3.30;1.65;;;12.30;99.90;;;;;;5059568;28;20469;-76
2022/09/06 08:34:14;;;;;;;2.95;1.65;;;12.20;99.90;;;;;;5059029;28;20393;-76
2022/09/06 08:36:44;;;;;;;3.05;1.55;;;12.20;99.90;;;;;;5059078;28;20029;-76
2022/09/06 08:39:12;;;;;;;6.95;1.58;;;12.10;99.90;;;;;;5059260;28;20020;-76
2022/09/06 08:42:04;;;;;;;4.82;1.45;;;12.00;99.90;;;;;;5059398;28;20108;-76
2022/09/06 08:44:35;;;;;;;3.10;1.50;;;12.00;99.90;;;;;;5058135;28;20025;-76
2022/09/06 08:47:08;;;;;;;3.22;1.30;;;11.90;99.90;;;;;;5056022;28;20120;-76
2022/09/06 08:49:41;;;;;;;4.00;1.10;;;11.90;99.90;;;;;;5056281;28;20028;-76
2022/09/06 08:52:15;;;;;;;1.40;0.60;;;11.80;99.90;;;;;;5056681;28;20029;-76
2022/09/06 08:54:51;;;;;;;2.42;0.85;;;11.80;99.90;;;;;;5055821;28;20100;-77
2022/09/06 08:57:57;;;;;;;2.85;1.08;;;11.70;99.90;;;;;;5055950;28;20532;-76
2022/09/06 09:00:25;;;;;;;3.50;1.67;;;11.60;99.90;;;;;;5012145;28;20497;-76
2022/09/06 09:02:58;;;;;;;3.03;1.20;;;11.60;99.90;;;;;;5055853;28;20017;-76
2022/09/06 09:05:36;;;;;;;4.43;1.30;;;11.60;99.90;;;;;;5055698;28;20061;-77
2022/09/06 09:08:07;;;;;;;5.43;1.60;;;11.50;99.90;;;;;;5055708;28;20075;-77
2022/09/06 09:11:00;;;;;;;5.00;1.40;;;11.50;99.90;;;;;;5055937;28;20565;-77
2022/09/06 09:13:36;;;;;;;4.40;1.80;;;11.50;99.90;;;;;;5055303;28;20029;-76
2022/09/06 09:16:03;;;;;;;;;;;11.60;99.90;;;;;;5056258;28;20025;-76
2022/09/06 09:18:40;;;;;;;4.28;1.40;;;11.50;99.90;;;;;;5055679;28;19909;-76
2022/09/06 09:21:08;;;;;;;3.38;1.25;;;11.50;99.90;;;;;;5055751;28;20029;-76
2022/09/06 09:23:36;;;;;;;3.25;1.60;;;11.50;99.90;;;;;;5055229;28;20053;-76
2022/09/06 09:26:13;;;;;;;3.45;1.75;;;11.50;99.90;;;;;;5055298;28;20052;-76
2022/09/06 09:29:04;;;;;;;2.95;1.20;;;11.50;99.90;;;;;;5055976;28;20024;-76
2022/09/06 09:31:38;;;;;;;3.17;1.40;;;11.50;99.90;;;;;;5056029;28;20021;-76
2022/09/06 09:34:10;;;;;;;4.38;1.58;;;11.50;99.90;;;;;;5054775;28;20041;-76
2022/09/06 09:36:38;;;;;;;3.80;1.38;;;11.50;99.90;;;;;;5055060;28;20473;-76
2022/09/06 09:39:12;;;;;;;8.88;2.10;;;11.50;99.90;;;;;;5054990;28;20478;-76
2022/09/06 09:41:42;;;;;;;2.97;1.65;;;11.50;99.90;;;;;;5053381;28;20371;-77
2022/09/06 09:44:20;;;;;;;8.63;1.60;;;11.50;99.90;;;;;;5054305;28;20063;-76
2022/09/06 09:46:48;;;;;;;5.68;1.50;;;11.50;99.90;;;;;;5051462;28;20059;-77
2022/09/06 09:49:29;;;;;;;6.25;1.50;;;11.40;99.90;;;;;;5043302;28;20524;-76
2022/09/06 09:52:14;;;;;;;3.70;1.13;;;11.40;99.90;;;;;;5046379;28;20032;-77
2022/09/06 09:54:46;;;;;;;2.67;0.95;;;11.40;99.90;;;;;;5046385;28;20021;-77
2022/09/06 09:57:18;;;;;;;3.83;1.30;;;11.30;99.90;;;;;;5043786;28;20025;-77
2022/09/06 09:59:56;;;;;;;2.95;1.23;;;11.30;99.90;;;;;;5047602;28;20474;-77
2022/09/06 10:02:37;;;;;;;3.78;1.10;;;11.20;99.90;;;;;;5050473;28;20481;-77
2022/09/06 10:05:12;;;;;;;5.35;1.02;;;11.20;99.90;;;;;;5033449;28;20033;-77
2022/09/06 10:07:50;;;;;;;8.63;1.75;;;11.10;99.90;;;;;;5037425;28;20515;-77
2022/09/06 10:10:31;;;;;;;7.43;1.10;;;11.10;99.90;;;;;;5043986;28;20017;-77
2022/09/06 10:13:19;;;;;;;2.42;0.98;;;11.10;99.90;;;;;;5048645;28;20033;-77
2022/09/06 10:15:49;;;;;;;2.20;0.98;;;11.10;99.90;;;;;;5033115;28;20486;-77
2022/09/06 10:18:42;;;;;;;2.10;1.10;;;11.10;99.90;;;;;;5035446;28;20032;-77
2022/09/06 10:21:22;;;;;;;3.60;1.10;;;11.10;99.90;;;;;;5044077;28;20056;-77
2022/09/06 10:24:14;;;;;;;3.22;1.77;;;11.10;99.90;;;;;;5049754;28;20032;-77
2022/09/06 10:26:56;;;;;;;3.15;1.73;;;11.10;99.90;;;;;;5033083;28;20033;-77
2022/09/06 10:29:39;;;;;;;3.05;1.38;;;11.00;99.90;;;;;;5048680;28;20021;-77
2022/09/06 10:32:27;;;;;;;4.38;1.77;;;11.10;99.90;;;;;;5051247;28;20029;-77
2022/09/06 10:35:14;;;;;;;6.55;1.55;;;11.10;99.90;;;;;;5049157;28;20069;-78
2022/09/06 10:37:47;;;;;;;2.92;1.25;;;11.10;99.90;;;;;;5050776;28;20035;-77
2022/09/06 10:40:24;;;;;;;3.05;0.98;;;11.00;99.90;;;;;;5050403;28;20047;-77
2022/09/06 10:42:55;;;;;;;2.90;1.23;;;11.00;99.90;;;;;;5048265;28;20036;-77
2022/09/06 10:46:02;;;;;;;2.92;1.10;;;11.00;99.90;;;;;;5049293;28;20110;-78
2022/09/06 10:48:40;;;;;;;6.85;1.67;;;11.00;99.90;;;;;;5048897;28;20029;-76
2022/09/06 10:51:37;;;;;;;3.00;1.90;;;11.10;99.90;;;;;;5050511;28;20120;-77
2022/09/06 10:54:05;;;;;;;3.97;2.30;;;11.10;99.90;;;;;;5017741;28;20029;-77
2022/09/06 10:56:57;;;;;;;2.65;1.50;;;11.00;99.90;;;;;;5048272;28;20087;-76
2022/09/06 10:59:43;;;;;;;3.30;1.65;;;11.00;99.90;;;;;;5049022;28;20115;-76
2022/09/06 11:02:14;;;;;;;6.57;1.45;;;11.00;99.90;;;;;;5050775;28;20028;-76
2022/09/06 11:04:45;;;;;;;2.95;1.00;;;10.90;99.90;;;;;;5048909;28;20017;-76
2022/09/06 11:07:15;;;;;;;4.93;1.05;;;11.00;99.90;;;;;;5049884;28;20071;-77
2022/09/06 11:09:51;;;;;;;4.00;1.27;;;11.00;99.90;;;;;;5049039;28;20013;-77
2022/09/06 11:12:30;;;;;;;2.80;1.08;;;10.90;99.90;;;;;;5045949;28;20095;-77
2022/09/06 11:15:02;;;;;;;4.03;1.15;;;10.90;99.90;;;;;;5048208;28;20051;-77
2022/09/06 11:17:51;;;;;;;3.63;1.30;;;10.90;99.90;;;;;;5046892;28;20032;-77
2022/09/06 11:20:40;;;;;;;5.30;1.50;;;10.90;99.90;;;;;;5048454;28;20021;-77
2022/09/06 11:23:47;;;;;;;4.43;1.65;;;10.90;99.90;;;;;;5049314;28;20083;-77
2022/09/06 11:26:58;;;;;;;6.72;1.40;;;10.80;99.90;;;;;;5019754;28;20029;-76
2022/09/06 11:29:29;;;;;;;3.90;1.33;;;10.70;99.90;;;;;;4968757;28;20109;-76
2022/09/06 11:32:03;;;;;;;4.85;1.90;;;10.70;99.90;;;;;;5037279;28;20092;-76
2022/09/06 11:34:35;;;;;;;2.55;1.75;;;10.70;99.90;;;;;;5048539;28;20041;-76
2022/09/06 11:37:08;;;;;;;3.70;2.22;;;10.70;99.90;;;;;;5048076;28;20102;-76
2022/09/06 11:39:38;;;;;;;6.72;3.20;;;10.70;99.90;;;;;;5049847;28;20025;-76
2022/09/06 11:42:30;;;;;;;5.55;3.70;;;10.70;99.90;;;;;;5050240;28;20010;-76
2022/09/06 11:44:57;;;;;;;6.97;3.15;;;10.70;99.90;;;;;;4997464;28;20069;-77
2022/09/06 11:47:46;;;;;;;6.47;3.10;;;10.70;99.90;;;;;;5047737;28;20033;-77
2022/09/06 11:50:26;;;;;;;6.05;2.55;;;10.70;99.90;;;;;;5031258;28;20021;-77
2022/09/06 11:53:16;;;;;;;6.68;2.22;;;10.60;99.90;;;;;;5048048;28;20014;-77
2022/09/06 11:56:00;;;;;;;4.15;1.63;;;10.60;99.90;;;;;;5048190;28;20060;-77
2022/09/06 11:58:41;;;;;;;2.08;0.95;;;10.60;99.90;;;;;;5048561;28;20051;-77
2022/09/06 12:01:15;;;;;;;5.47;1.60;;;10.60;99.90;;;;;;5048051;28;20021;-76
2022/09/06 12:03:48;;;;;;;2.85;1.50;;;10.60;99.90;;;;;;5046887;28;20045;-76
2022/09/06 12:06:19;;;;;;;3.85;1.20;;;10.60;99.90;;;;;;5048430;28;20025;-77
2022/09/06 12:08:54;;;;;;;4.93;1.45;;;10.60;99.90;;;;;;5049844;28;20017;-76
2022/09/06 12:11:36;;;;;;;3.90;1.48;;;10.60;99.90;;;;;;5048386;28;20025;-77
2022/09/06 12:14:06;;;;;;;3.58;1.52;;;10.60;99.90;;;;;;5049982;28;20040;-75
2022/09/06 12:16:55;;;;;;;1.88;0.98;;;10.60;99.90;;;;;;5046510;28;20052;-75
2022/09/06 12:19:46;;;;;;;2.08;1.15;;;10.60;99.90;;;;;;5049553;28;20509;-75
2022/09/06 12:22:28;;;;;;;1.88;1.10;;;10.60;99.90;;;;;;5054694;28;20021;-76
2022/09/06 12:25:00;;;;;;;2.63;1.58;;;10.60;99.90;;;;;;5053049;28;20143;-76
2022/09/06 12:27:53;;;;;;;1.90;1.42;;;10.60;99.90;;;;;;5051300;28;20381;-75
2022/09/06 12:30:42;;;;;;;5.13;1.80;;;10.60;99.90;;;;;;5019063;28;20417;-75
2022/09/06 12:33:37;;;;;;;3.60;1.63;;;10.60;99.90;;;;;;5050711;28;20025;-76
2022/09/06 12:36:29;;;;;;;5.57;2.15;;;10.60;99.90;;;;;;5048808;28;20053;-75
2022/09/06 12:38:58;;;;;;;3.28;1.80;;;10.50;99.90;;;;;;5051745;28;20041;-75
2022/09/06 12:41:47;;;;;;;4.53;1.35;;;10.50;99.90;;;;;;5052679;28;20021;-75
2022/09/06 12:44:16;;;;;;;7.28;2.25;;;10.50;99.90;;;;;;5052616;28;20017;-76
2022/09/06 12:46:50;;;;;;;3.00;1.20;;;10.50;99.90;;;;;;5053076;28;20087;-76
2022/09/06 12:49:24;;;;;;;2.55;1.38;;;10.50;99.90;;;;;;5050840;28;20028;-76
2022/09/06 12:52:07;;;;;;;1.85;1.10;;;10.50;99.90;;;;;;5052851;28;21001;-76
2022/09/06 12:54:43;;;;;;;3.17;1.08;;;10.40;99.90;;;;;;5051809;28;20662;-76
2022/09/06 12:57:21;;;;;;;2.25;0.80;;;10.40;99.90;;;;;;5053043;28;20087;-77
2022/09/06 12:59:50;;;;;;;1.33;0.90;;;10.40;99.90;;;;;;5048201;28;20022;-76
2022/09/06 13:02:42;;;;;;;3.20;0.90;;;10.30;99.90;;;;;;5041689;28;20087;-75
2022/09/06 13:05:12;;;;;;;1.45;0.70;;;10.30;99.90;;;;;;5041603;28;20116;-75
2022/09/06 13:07:53;;;;;;;1.38;0.57;;;10.30;99.90;;;;;;5043918;28;20024;-76
2022/09/06 13:10:24;;;;;;;1.17;0.80;;;10.20;99.90;;;;;;5044809;28;20029;-76
2022/09/06 13:12:53;;;;;;;0.88;0.63;;;10.20;99.90;;;;;;5045258;28;20079;-76
2022/09/06 13:15:25;;;;;;;2.17;1.08;;;10.20;99.90;;;;;;5026847;28;20034;-76
2022/09/06 13:17:55;;;;;;;2.63;1.55;;;10.20;99.90;;;;;;5041836;28;20446;-76
2022/09/06 13:20:26;;;;;;;3.78;1.35;;;10.10;99.90;;;;;;5026783;28;20043;-75